^^

Nearby METAR Reports

 

EGHH - Bournemouth Airp, United Kingdom
Distance from station: S 10mi, 17km
Updated: 10/12/2018 21:50
NOT Current
Shallow fog, Partly cloudy
Shallow fog, Partly cloudy
 Wind from ENE
Wind: ENE 1 mph , 2 km/h
Temperature: 2°C
Dew Point: 2°C
Humidity: 100%
Barometer: 1028 hPa
Summary: Shallow Fog
Clouds: Partly cloudy
Visibility: 6 miles , 10 km
2018/12/10 21:50 EGHH 102150Z 06001KT 9999 MIFG NSC 02/02 Q1028
EGDM - Boscombe Down, United Kingdom
Distance from station: N 16mi, 26km
Updated: 11/12/2018 04:50
Fog, Mostly cloudy
Fog, Mostly cloudy
 Wind from ENE
Wind: ENE 9 mph , 15 km/h
Temperature: 2°C
Wind Chill: -2°C
Dew Point: 2°C
Humidity: 100%
Barometer: 1025 hPa
Summary: Fog
Clouds: Mostly cloudy
Visibility: 0 mile , 1 km
Cloud details: Few Clouds 183 m
Mostly cloudy 975 m
2018/12/11 04:50 EGDM 110450Z AUTO 07008KT 0550 FG FEW006/// BKN032/// 02/02 Q1025
 
EGVP - Middle Wallop, United Kingdom
Distance from station: NE 17mi, 27km
Updated: 11/12/2018 04:50
Mostly cloudy
Mostly cloudy
 Wind from NNE
Wind: NNE 2 mph , 4 km/h
Temperature: 2°C
Dew Point: 2°C
Humidity: 100%
Barometer: 1025 hPa
Clouds: Mostly cloudy
Visibility: 0 mile , 0 km
Cloud details: Few Clouds 30 m
Mostly cloudy 274 m
Mostly cloudy 1036 m
2018/12/11 04:50 EGVP 110450Z AUTO 02002KT 0200 // FEW001/// BKN009/// BKN034/// 02/02 Q1025
EGHI - Southampton Wx C, United Kingdom
Distance from station: E 19mi, 31km
Updated: 10/12/2018 22:20
NOT Current
Partly cloudy
Partly cloudy
 Wind from N
Wind: N 1 mph , 2 km/h
Temperature: 3°C
Dew Point: 2°C
Humidity: 93%
Barometer: 1028 hPa
Clouds: Partly cloudy
Visibility: 6 miles , 9 km
2018/12/10 22:20 EGHI 102220Z 36001KT 9000 NSC 03/02 Q1028
 
EGDY - Yeovilton (navy), United Kingdom
Distance from station: W 36mi, 58km
Updated: 11/12/2018 04:50
Mostly cloudy
Mostly cloudy
 Wind from ENE
Wind: ENE 2 mph , 4 km/h
Temperature: 3°C
Dew Point: 3°C
Humidity: 100%
Barometer: 1025 hPa
Clouds: Mostly cloudy
Visibility: 6 miles , 10 km
Cloud details: Mostly cloudy 1067 m
2018/12/11 04:50 EGDY 110450Z 06002KT 9999 BKN035 03/03 Q1025 BLU
EGUO - Colerne Raf, United Kingdom
Distance from station: NNW 41mi, 66km
Updated: 21/03/2018 08:50
NOT Current
Clear
Clear
 Wind from W
Wind: W 6 mph , 9 km/h
Temperature: 5°C
Wind Chill: 3°C
Dew Point: 1°C
Humidity: 76%
Barometer: 1032 hPa
Clouds: Clear
Visibility: 6 miles , 10 km
2018/03/21 08:50 EGUO 210850Z 27005KT 9999 NCD 05/01 Q1032 BLU NOSIG
 
EGVO - Odiham Raf, United Kingdom
Distance from station: ENE 42mi, 68km
Updated: 11/12/2018 04:50
Mostly cloudy
Mostly cloudy
 Wind from SW
Wind: SW 2 mph , 4 km/h
Temperature: 3°C
Dew Point: 2°C
Humidity: 93%
Barometer: 1025 hPa
Clouds: Mostly cloudy
Visibility: 6 miles , 10 km
Cloud details: Mostly cloudy 549 m
2018/12/11 04:50 EGVO 110450Z 23002KT 9999 BKN018 03/02 Q1025 WHT
EGGD - Bristol/Lulsgate, United Kingdom
Distance from station: NW 50mi, 81km
Updated: 11/12/2018 04:50
Clear
Clear
 Wind from S
Wind: S 5 mph , 7 km/h
Temperature: 6°C
Wind Chill: 4°C
Dew Point: 6°C
Humidity: 100%
Barometer: 1024 hPa
Clouds: Clear
Visibility: 6 miles , 10 km
2018/12/11 04:50 EGGD 110450Z AUTO 19004KT 9999 NCD 06/06 Q1024